Main page
METAR-TAF:

METAR-TAF

Airports :

Gran Canaria, Spain

Gran Canaria Airport

latitude: 27-56N, longitude: 015-23W, elevation: 23 m

Current weather observation

The report was made 39 minutes ago, at 20:00 UTC
Wind 15 kt from the North
Temperature 27°C
Humidity 66%
Pressure 1015 hPa
Visibility: 9000 m

METAR: GCLP 232000Z 01015KT 9000 NSC 27/20 Q1015 NOSIG

Time: 21:39 (20:39 UTC)

Forecast

The report was made 6 hours and 39 minutes ago, at 14:00 UTC
Forecast valid from 23 at 15 UTC to 24 at 15 UTC
Wind 15 kt from the North
Visibility 10 km or more
no clouds below 1500 m and no cumulonimbus

TAF: GCLP 231400Z 2315/2415 36015KT CAVOK TX31/2413Z TN24/2405Z

Weather observations and forecasts of more than 4000 airports (METAR and TAF reports).

The available stations are represented by yellow and red dots on the map.

Hover mouse over dot to see the name of the station.

Then click to see weather observations and forecasts.

To change the map : click on the green buttons with a black cross to zoom in, on the green button with a dash to zoom out, or on the green arrows for adjacent maps.


METAR-TAF: